Tocsin, Indiana
Current Conditions -  °F | °C
As of 1:54 AM on Friday 28 Nov 2014 (Local Time) from KFWA Reporting Station
Scattered Clouds Scattered Clouds  
Wind Chill: 12°   Ceiling: Unl
Heat Index: 21°   Visibility: 10mi
Dew Point: 16°   Wind: 7mph
Humidity: 81%   Direction: 270°W
Pressure: 30.36"   Gusts: NA
Location:  40.8661°N, 85.1531°W
Report Text: KFWA 280654Z 27006KT 10SM SCT036 M06/M09 A3036 RMK AO2 SLP292 T10611089
Loading
Personal Weather Stations






























Interactive Weather Map New forecast layout! Learn more

10-Day Weather Forecast

Advertisements
Track Severe Weather on mobile